sensor_id;sensor_type;location;lat;lon;timestamp;P1;durP1;ratioP1;P2;durP2;ratioP2
17614;SDS011;8926;49.720;6.576;2023-08-06T00:00:27;1.57;;;1.47;;
17614;SDS011;8926;49.720;6.576;2023-08-06T00:02:52;1.80;;;1.70;;
17614;SDS011;8926;49.720;6.576;2023-08-06T00:05:18;1.90;;;1.80;;
17614;SDS011;8926;49.720;6.576;2023-08-06T00:07:45;2.03;;;1.90;;
17614;SDS011;8926;49.720;6.576;2023-08-06T00:10:11;1.60;;;1.50;;
17614;SDS011;8926;49.720;6.576;2023-08-06T00:12:36;1.40;;;1.30;;
17614;SDS011;8926;49.720;6.576;2023-08-06T00:15:02;1.80;;;1.43;;
17614;SDS011;8926;49.720;6.576;2023-08-06T00:17:28;1.60;;;1.50;;
17614;SDS011;8926;49.720;6.576;2023-08-06T00:19:53;1.40;;;1.30;;
17614;SDS011;8926;49.720;6.576;2023-08-06T00:22:18;2.00;;;1.90;;
17614;SDS011;8926;49.720;6.576;2023-08-06T00:24:44;1.80;;;1.70;;
17614;SDS011;8926;49.720;6.576;2023-08-06T00:27:09;1.93;;;1.83;;
17614;SDS011;8926;49.720;6.576;2023-08-06T00:29:34;2.20;;;1.93;;
17614;SDS011;8926;49.720;6.576;2023-08-06T00:32:00;1.20;;;1.20;;
17614;SDS011;8926;49.720;6.576;2023-08-06T00:34:25;1.20;;;1.20;;
17614;SDS011;8926;49.720;6.576;2023-08-06T00:36:50;1.43;;;1.33;;
17614;SDS011;8926;49.720;6.576;2023-08-06T00:39:15;1.40;;;1.30;;
17614;SDS011;8926;49.720;6.576;2023-08-06T00:41:41;1.73;;;1.63;;
17614;SDS011;8926;49.720;6.576;2023-08-06T00:44:06;1.60;;;1.50;;
17614;SDS011;8926;49.720;6.576;2023-08-06T00:46:32;3.50;;;2.07;;
17614;SDS011;8926;49.720;6.576;2023-08-06T00:48:58;1.93;;;1.83;;
17614;SDS011;8926;49.720;6.576;2023-08-06T00:51:24;2.87;;;2.20;;
17614;SDS011;8926;49.720;6.576;2023-08-06T00:53:50;2.13;;;1.93;;
17614;SDS011;8926;49.720;6.576;2023-08-06T00:56:17;1.63;;;1.53;;
17614;SDS011;8926;49.720;6.576;2023-08-06T00:58:42;2.17;;;1.97;;
17614;SDS011;8926;49.720;6.576;2023-08-06T01:01:08;1.77;;;1.67;;
17614;SDS011;8926;49.720;6.576;2023-08-06T01:03:33;2.13;;;1.60;;
17614;SDS011;8926;49.720;6.576;2023-08-06T01:05:59;1.70;;;1.53;;
17614;SDS011;8926;49.720;6.576;2023-08-06T01:14:06;2.10;;;1.50;;
17614;SDS011;8926;49.720;6.576;2023-08-06T01:16:38;5.00;;;2.03;;
17614;SDS011;8926;49.720;6.576;2023-08-06T01:19:14;2.13;;;1.37;;
17614;SDS011;8926;49.720;6.576;2023-08-06T01:21:41;1.47;;;1.30;;
17614;SDS011;8926;49.720;6.576;2023-08-06T01:24:06;1.20;;;1.10;;
17614;SDS011;8926;49.720;6.576;2023-08-06T01:26:42;3.53;;;1.10;;
17614;SDS011;8926;49.720;6.576;2023-08-06T01:29:22;1.53;;;1.30;;
17614;SDS011;8926;49.720;6.576;2023-08-06T01:31:53;1.90;;;1.10;;
17614;SDS011;8926;49.720;6.576;2023-08-06T01:34:21;2.57;;;1.30;;
17614;SDS011;8926;49.720;6.576;2023-08-06T01:36:48;1.30;;;1.10;;
17614;SDS011;8926;49.720;6.576;2023-08-06T01:39:14;1.67;;;1.10;;
17614;SDS011;8926;49.720;6.576;2023-08-06T01:41:39;1.83;;;1.10;;
17614;SDS011;8926;49.720;6.576;2023-08-06T01:44:05;2.57;;;0.90;;
17614;SDS011;8926;49.720;6.576;2023-08-06T01:46:30;1.07;;;0.80;;
17614;SDS011;8926;49.720;6.576;2023-08-06T01:48:56;2.77;;;1.10;;
17614;SDS011;8926;49.720;6.576;2023-08-06T01:51:21;2.27;;;0.80;;
17614;SDS011;8926;49.720;6.576;2023-08-06T01:53:46;2.23;;;1.00;;
17614;SDS011;8926;49.720;6.576;2023-08-06T01:56:12;0.97;;;0.50;;
17614;SDS011;8926;49.720;6.576;2023-08-06T01:58:37;0.60;;;0.60;;
17614;SDS011;8926;49.720;6.576;2023-08-06T02:01:02;0.63;;;0.47;;
17614;SDS011;8926;49.720;6.576;2023-08-06T02:03:27;2.83;;;0.80;;
17614;SDS011;8926;49.720;6.576;2023-08-06T02:05:53;1.63;;;0.60;;
17614;SDS011;8926;49.720;6.576;2023-08-06T02:08:18;1.10;;;0.40;;
17614;SDS011;8926;49.720;6.576;2023-08-06T02:10:44;0.70;;;0.50;;
17614;SDS011;8926;49.720;6.576;2023-08-06T02:13:10;1.30;;;0.40;;
17614;SDS011;8926;49.720;6.576;2023-08-06T02:15:35;0.87;;;0.43;;
17614;SDS011;8926;49.720;6.576;2023-08-06T02:18:00;0.70;;;0.53;;
17614;SDS011;8926;49.720;6.576;2023-08-06T02:20:26;0.83;;;0.50;;
17614;SDS011;8926;49.720;6.576;2023-08-06T02:22:51;0.77;;;0.40;;
17614;SDS011;8926;49.720;6.576;2023-08-06T02:25:16;0.70;;;0.40;;
17614;SDS011;8926;49.720;6.576;2023-08-06T02:27:42;0.50;;;0.40;;
17614;SDS011;8926;49.720;6.576;2023-08-06T02:30:07;1.07;;;0.50;;
17614;SDS011;8926;49.720;6.576;2023-08-06T02:32:33;0.53;;;0.13;;
17614;SDS011;8926;49.720;6.576;2023-08-06T02:35:00;2.30;;;0.60;;
17614;SDS011;8926;49.720;6.576;2023-08-06T02:37:26;0.50;;;0.40;;
17614;SDS011;8926;49.720;6.576;2023-08-06T02:39:51;1.20;;;0.43;;
17614;SDS011;8926;49.720;6.576;2023-08-06T02:42:17;1.37;;;0.93;;
17614;SDS011;8926;49.720;6.576;2023-08-06T02:44:42;0.67;;;0.50;;
17614;SDS011;8926;49.720;6.576;2023-08-06T02:47:07;0.47;;;0.30;;
17614;SDS011;8926;49.720;6.576;2023-08-06T02:49:32;1.00;;;0.57;;
17614;SDS011;8926;49.720;6.576;2023-08-06T02:51:58;0.90;;;0.63;;
17614;SDS011;8926;49.720;6.576;2023-08-06T02:54:23;1.43;;;0.60;;
17614;SDS011;8926;49.720;6.576;2023-08-06T02:56:48;1.63;;;0.87;;
17614;SDS011;8926;49.720;6.576;2023-08-06T02:59:13;1.27;;;0.63;;
17614;SDS011;8926;49.720;6.576;2023-08-06T03:01:39;1.07;;;0.50;;
17614;SDS011;8926;49.720;6.576;2023-08-06T03:04:04;1.30;;;0.70;;
17614;SDS011;8926;49.720;6.576;2023-08-06T03:06:30;1.70;;;0.70;;
17614;SDS011;8926;49.720;6.576;2023-08-06T03:08:55;0.87;;;0.60;;
17614;SDS011;8926;49.720;6.576;2023-08-06T03:11:21;0.97;;;0.50;;
17614;SDS011;8926;49.720;6.576;2023-08-06T03:13:49;1.07;;;0.60;;
17614;SDS011;8926;49.720;6.576;2023-08-06T03:16:14;0.93;;;0.70;;
17614;SDS011;8926;49.720;6.576;2023-08-06T03:18:39;2.00;;;0.60;;
17614;SDS011;8926;49.720;6.576;2023-08-06T03:21:05;1.53;;;0.60;;
17614;SDS011;8926;49.720;6.576;2023-08-06T03:23:30;1.93;;;0.50;;
17614;SDS011;8926;49.720;6.576;2023-08-06T03:25:55;1.00;;;0.60;;
17614;SDS011;8926;49.720;6.576;2023-08-06T03:28:21;0.40;;;0.40;;
17614;SDS011;8926;49.720;6.576;2023-08-06T03:30:47;1.00;;;0.73;;
17614;SDS011;8926;49.720;6.576;2023-08-06T03:33:12;1.00;;;0.50;;
17614;SDS011;8926;49.720;6.576;2023-08-06T03:35:37;1.27;;;0.80;;
17614;SDS011;8926;49.720;6.576;2023-08-06T03:38:03;1.03;;;0.67;;
17614;SDS011;8926;49.720;6.576;2023-08-06T03:40:28;0.97;;;0.60;;
17614;SDS011;8926;49.720;6.576;2023-08-06T03:42:53;1.10;;;0.70;;
17614;SDS011;8926;49.720;6.576;2023-08-06T03:45:19;0.87;;;0.50;;
17614;SDS011;8926;49.720;6.576;2023-08-06T03:47:44;0.97;;;0.53;;
17614;SDS011;8926;49.720;6.576;2023-08-06T03:50:09;0.97;;;0.60;;
17614;SDS011;8926;49.720;6.576;2023-08-06T03:52:35;3.37;;;0.70;;
17614;SDS011;8926;49.720;6.576;2023-08-06T03:55:00;0.60;;;0.50;;
17614;SDS011;8926;49.720;6.576;2023-08-06T03:57:25;0.67;;;0.67;;
17614;SDS011;8926;49.720;6.576;2023-08-06T03:59:51;1.93;;;0.60;;
17614;SDS011;8926;49.720;6.576;2023-08-06T04:02:16;0.70;;;0.50;;
17614;SDS011;8926;49.720;6.576;2023-08-06T04:04:41;0.70;;;0.70;;
17614;SDS011;8926;49.720;6.576;2023-08-06T04:07:07;1.20;;;0.67;;
17614;SDS011;8926;49.720;6.576;2023-08-06T04:09:32;2.27;;;0.60;;
17614;SDS011;8926;49.720;6.576;2023-08-06T04:11:57;1.50;;;0.70;;
17614;SDS011;8926;49.720;6.576;2023-08-06T04:14:23;0.63;;;0.60;;
17614;SDS011;8926;49.720;6.576;2023-08-06T04:16:50;0.50;;;0.50;;
17614;SDS011;8926;49.720;6.576;2023-08-06T04:19:15;0.50;;;0.50;;
17614;SDS011;8926;49.720;6.576;2023-08-06T04:21:40;0.80;;;0.67;;
17614;SDS011;8926;49.720;6.576;2023-08-06T04:24:06;1.47;;;0.60;;
17614;SDS011;8926;49.720;6.576;2023-08-06T04:26:31;0.80;;;0.80;;
17614;SDS011;8926;49.720;6.576;2023-08-06T04:28:56;1.83;;;0.60;;
17614;SDS011;8926;49.720;6.576;2023-08-06T04:31:21;0.77;;;0.57;;
17614;SDS011;8926;49.720;6.576;2023-08-06T04:33:48;0.90;;;0.70;;
17614;SDS011;8926;49.720;6.576;2023-08-06T04:36:13;0.57;;;0.40;;
17614;SDS011;8926;49.720;6.576;2023-08-06T04:38:38;0.80;;;0.60;;
17614;SDS011;8926;49.720;6.576;2023-08-06T04:41:06;0.60;;;0.60;;
17614;SDS011;8926;49.720;6.576;2023-08-06T04:43:31;1.33;;;0.60;;
17614;SDS011;8926;49.720;6.576;2023-08-06T04:45:56;1.20;;;0.80;;
17614;SDS011;8926;49.720;6.576;2023-08-06T04:48:22;0.80;;;0.40;;
17614;SDS011;8926;49.720;6.576;2023-08-06T04:50:48;1.07;;;0.80;;
17614;SDS011;8926;49.720;6.576;2023-08-06T04:53:14;0.60;;;0.60;;
17614;SDS011;8926;49.720;6.576;2023-08-06T04:55:40;0.57;;;0.50;;
17614;SDS011;8926;49.720;6.576;2023-08-06T04:58:06;0.30;;;0.30;;
17614;SDS011;8926;49.720;6.576;2023-08-06T05:00:31;0.40;;;0.40;;
17614;SDS011;8926;49.720;6.576;2023-08-06T05:02:56;0.73;;;0.60;;
17614;SDS011;8926;49.720;6.576;2023-08-06T05:05:24;0.73;;;0.40;;
17614;SDS011;8926;49.720;6.576;2023-08-06T05:07:49;0.40;;;0.40;;
17614;SDS011;8926;49.720;6.576;2023-08-06T05:10:15;1.03;;;0.87;;
17614;SDS011;8926;49.720;6.576;2023-08-06T05:12:41;0.73;;;0.40;;
17614;SDS011;8926;49.720;6.576;2023-08-06T05:15:06;0.47;;;0.47;;
17614;SDS011;8926;49.720;6.576;2023-08-06T05:17:32;0.60;;;0.60;;
17614;SDS011;8926;49.720;6.576;2023-08-06T05:19:57;0.77;;;0.50;;
17614;SDS011;8926;49.720;6.576;2023-08-06T05:22:23;0.47;;;0.43;;
17614;SDS011;8926;49.720;6.576;2023-08-06T05:24:48;0.47;;;0.30;;
17614;SDS011;8926;49.720;6.576;2023-08-06T05:27:13;0.50;;;0.50;;
17614;SDS011;8926;49.720;6.576;2023-08-06T05:29:38;0.87;;;0.60;;
17614;SDS011;8926;49.720;6.576;2023-08-06T05:32:04;0.30;;;0.30;;
17614;SDS011;8926;49.720;6.576;2023-08-06T05:34:29;0.40;;;0.40;;
17614;SDS011;8926;49.720;6.576;2023-08-06T05:36:55;0.40;;;0.40;;
17614;SDS011;8926;49.720;6.576;2023-08-06T05:39:20;0.33;;;0.30;;
17614;SDS011;8926;49.720;6.576;2023-08-06T05:41:45;0.40;;;0.40;;
17614;SDS011;8926;49.720;6.576;2023-08-06T05:44:11;0.53;;;0.40;;
17614;SDS011;8926;49.720;6.576;2023-08-06T05:46:36;0.60;;;0.60;;
17614;SDS011;8926;49.720;6.576;2023-08-06T05:49:01;0.23;;;0.23;;
17614;SDS011;8926;49.720;6.576;2023-08-06T05:51:27;0.27;;;0.27;;
17614;SDS011;8926;49.720;6.576;2023-08-06T05:53:52;0.60;;;0.60;;
17614;SDS011;8926;49.720;6.576;2023-08-06T05:56:18;0.40;;;0.40;;
17614;SDS011;8926;49.720;6.576;2023-08-06T05:58:43;0.50;;;0.50;;
17614;SDS011;8926;49.720;6.576;2023-08-06T06:01:08;2.27;;;0.73;;
17614;SDS011;8926;49.720;6.576;2023-08-06T06:03:34;0.73;;;0.73;;
17614;SDS011;8926;49.720;6.576;2023-08-06T06:06:00;0.40;;;0.40;;
17614;SDS011;8926;49.720;6.576;2023-08-06T06:08:26;1.70;;;0.43;;
17614;SDS011;8926;49.720;6.576;2023-08-06T06:10:51;0.60;;;0.60;;
17614;SDS011;8926;49.720;6.576;2023-08-06T06:13:17;0.60;;;0.60;;
17614;SDS011;8926;49.720;6.576;2023-08-06T06:15:42;1.90;;;0.50;;
17614;SDS011;8926;49.720;6.576;2023-08-06T06:18:07;0.50;;;0.50;;
17614;SDS011;8926;49.720;6.576;2023-08-06T06:20:32;0.60;;;0.60;;
17614;SDS011;8926;49.720;6.576;2023-08-06T06:22:58;0.60;;;0.60;;
17614;SDS011;8926;49.720;6.576;2023-08-06T06:25:24;0.33;;;0.33;;
17614;SDS011;8926;49.720;6.576;2023-08-06T06:27:49;0.20;;;0.20;;
17614;SDS011;8926;49.720;6.576;2023-08-06T06:30:14;0.40;;;0.40;;
17614;SDS011;8926;49.720;6.576;2023-08-06T06:32:40;0.43;;;0.43;;
17614;SDS011;8926;49.720;6.576;2023-08-06T06:35:05;0.70;;;0.70;;
17614;SDS011;8926;49.720;6.576;2023-08-06T06:37:31;1.17;;;1.07;;
17614;SDS011;8926;49.720;6.576;2023-08-06T06:39:56;1.23;;;1.17;;
17614;SDS011;8926;49.720;6.576;2023-08-06T06:42:22;0.83;;;0.83;;
17614;SDS011;8926;49.720;6.576;2023-08-06T06:44:47;1.53;;;1.20;;
17614;SDS011;8926;49.720;6.576;2023-08-06T06:47:13;0.80;;;0.80;;
17614;SDS011;8926;49.720;6.576;2023-08-06T06:49:38;0.63;;;0.53;;
17614;SDS011;8926;49.720;6.576;2023-08-06T06:52:04;0.40;;;0.40;;
17614;SDS011;8926;49.720;6.576;2023-08-06T06:54:30;0.40;;;0.40;;
17614;SDS011;8926;49.720;6.576;2023-08-06T06:56:55;0.40;;;0.40;;
17614;SDS011;8926;49.720;6.576;2023-08-06T06:59:20;0.40;;;0.40;;
17614;SDS011;8926;49.720;6.576;2023-08-06T07:01:46;0.73;;;0.47;;
17614;SDS011;8926;49.720;6.576;2023-08-06T07:04:11;0.30;;;0.30;;
17614;SDS011;8926;49.720;6.576;2023-08-06T07:06:36;0.40;;;0.40;;
17614;SDS011;8926;49.720;6.576;2023-08-06T07:09:01;0.23;;;0.23;;
17614;SDS011;8926;49.720;6.576;2023-08-06T07:11:27;0.33;;;0.33;;
17614;SDS011;8926;49.720;6.576;2023-08-06T07:13:56;0.50;;;0.50;;
17614;SDS011;8926;49.720;6.576;2023-08-06T07:16:23;0.40;;;0.40;;
17614;SDS011;8926;49.720;6.576;2023-08-06T07:18:48;0.63;;;0.50;;
17614;SDS011;8926;49.720;6.576;2023-08-06T07:21:13;0.30;;;0.30;;
17614;SDS011;8926;49.720;6.576;2023-08-06T07:23:39;0.53;;;0.50;;
17614;SDS011;8926;49.720;6.576;2023-08-06T07:26:04;0.37;;;0.37;;
17614;SDS011;8926;49.720;6.576;2023-08-06T07:28:29;0.60;;;0.47;;
17614;SDS011;8926;49.720;6.576;2023-08-06T07:30:54;0.40;;;0.40;;
17614;SDS011;8926;49.720;6.576;2023-08-06T07:33:20;0.87;;;0.40;;
17614;SDS011;8926;49.720;6.576;2023-08-06T07:35:45;1.13;;;0.30;;
17614;SDS011;8926;49.720;6.576;2023-08-06T07:38:11;0.73;;;0.40;;
17614;SDS011;8926;49.720;6.576;2023-08-06T07:40:36;0.60;;;0.60;;
17614;SDS011;8926;49.720;6.576;2023-08-06T07:43:04;0.40;;;0.40;;
17614;SDS011;8926;49.720;6.576;2023-08-06T07:45:34;0.60;;;0.60;;
17614;SDS011;8926;49.720;6.576;2023-08-06T07:48:00;0.60;;;0.60;;
17614;SDS011;8926;49.720;6.576;2023-08-06T07:50:25;0.47;;;0.40;;
17614;SDS011;8926;49.720;6.576;2023-08-06T07:52:50;0.60;;;0.60;;
17614;SDS011;8926;49.720;6.576;2023-08-06T07:55:16;0.47;;;0.47;;
17614;SDS011;8926;49.720;6.576;2023-08-06T07:57:41;0.60;;;0.60;;
17614;SDS011;8926;49.720;6.576;2023-08-06T08:00:06;0.60;;;0.60;;
17614;SDS011;8926;49.720;6.576;2023-08-06T08:02:32;0.53;;;0.53;;
17614;SDS011;8926;49.720;6.576;2023-08-06T08:04:58;0.37;;;0.30;;
17614;SDS011;8926;49.720;6.576;2023-08-06T08:07:23;0.30;;;0.30;;
17614;SDS011;8926;49.720;6.576;2023-08-06T08:09:48;0.40;;;0.40;;
17614;SDS011;8926;49.720;6.576;2023-08-06T08:12:14;0.70;;;0.50;;
17614;SDS011;8926;49.720;6.576;2023-08-06T08:14:39;0.40;;;0.40;;
17614;SDS011;8926;49.720;6.576;2023-08-06T08:17:05;0.30;;;0.30;;
17614;SDS011;8926;49.720;6.576;2023-08-06T08:19:31;1.17;;;0.47;;
17614;SDS011;8926;49.720;6.576;2023-08-06T08:21:56;0.30;;;0.30;;
17614;SDS011;8926;49.720;6.576;2023-08-06T08:24:22;0.97;;;0.50;;
17614;SDS011;8926;49.720;6.576;2023-08-06T08:26:51;0.30;;;0.30;;
17614;SDS011;8926;49.720;6.576;2023-08-06T08:29:17;0.77;;;0.43;;
17614;SDS011;8926;49.720;6.576;2023-08-06T08:31:42;0.40;;;0.37;;
17614;SDS011;8926;49.720;6.576;2023-08-06T08:34:08;0.40;;;0.40;;
17614;SDS011;8926;49.720;6.576;2023-08-06T08:36:34;0.50;;;0.30;;
17614;SDS011;8926;49.720;6.576;2023-08-06T08:38:59;0.47;;;0.47;;
17614;SDS011;8926;49.720;6.576;2023-08-06T08:41:24;0.40;;;0.40;;
17614;SDS011;8926;49.720;6.576;2023-08-06T08:43:50;0.70;;;0.70;;
17614;SDS011;8926;49.720;6.576;2023-08-06T08:46:17;0.50;;;0.40;;
17614;SDS011;8926;49.720;6.576;2023-08-06T08:48:45;0.40;;;0.40;;
17614;SDS011;8926;49.720;6.576;2023-08-06T08:51:11;0.30;;;0.30;;
17614;SDS011;8926;49.720;6.576;2023-08-06T08:53:38;0.50;;;0.50;;
17614;SDS011;8926;49.720;6.576;2023-08-06T08:56:04;0.60;;;0.60;;
17614;SDS011;8926;49.720;6.576;2023-08-06T08:58:30;0.43;;;0.43;;
17614;SDS011;8926;49.720;6.576;2023-08-06T09:00:56;1.17;;;0.60;;
17614;SDS011;8926;49.720;6.576;2023-08-06T09:03:22;0.40;;;0.40;;
17614;SDS011;8926;49.720;6.576;2023-08-06T09:05:49;0.40;;;0.40;;
17614;SDS011;8926;49.720;6.576;2023-08-06T09:08:18;0.67;;;0.67;;
17614;SDS011;8926;49.720;6.576;2023-08-06T09:10:49;1.40;;;0.50;;
17614;SDS011;8926;49.720;6.576;2023-08-06T09:13:15;0.40;;;0.40;;
17614;SDS011;8926;49.720;6.576;2023-08-06T09:15:41;0.30;;;0.30;;
17614;SDS011;8926;49.720;6.576;2023-08-06T09:18:10;0.60;;;0.60;;
17614;SDS011;8926;49.720;6.576;2023-08-06T09:20:37;0.70;;;0.70;;
17614;SDS011;8926;49.720;6.576;2023-08-06T09:23:07;0.97;;;0.90;;
17614;SDS011;8926;49.720;6.576;2023-08-06T09:25:33;0.83;;;0.83;;
17614;SDS011;8926;49.720;6.576;2023-08-06T09:27:58;0.80;;;0.80;;
17614;SDS011;8926;49.720;6.576;2023-08-06T09:30:30;0.80;;;0.80;;
17614;SDS011;8926;49.720;6.576;2023-08-06T09:32:57;1.40;;;0.80;;
17614;SDS011;8926;49.720;6.576;2023-08-06T09:35:23;1.10;;;1.00;;
17614;SDS011;8926;49.720;6.576;2023-08-06T09:37:48;1.17;;;0.90;;
17614;SDS011;8926;49.720;6.576;2023-08-06T09:40:30;1.03;;;1.03;;
17614;SDS011;8926;49.720;6.576;2023-08-06T09:42:56;2.07;;;1.10;;
17614;SDS011;8926;49.720;6.576;2023-08-06T09:45:23;1.00;;;1.00;;
17614;SDS011;8926;49.720;6.576;2023-08-06T09:47:55;1.27;;;1.13;;
17614;SDS011;8926;49.720;6.576;2023-08-06T09:50:21;1.20;;;1.10;;
17614;SDS011;8926;49.720;6.576;2023-08-06T09:52:47;3.40;;;2.00;;
17614;SDS011;8926;49.720;6.576;2023-08-06T09:55:14;2.23;;;1.40;;
17614;SDS011;8926;49.720;6.576;2023-08-06T09:57:42;1.53;;;1.43;;
17614;SDS011;8926;49.720;6.576;2023-08-06T10:00:11;2.70;;;1.73;;
17614;SDS011;8926;49.720;6.576;2023-08-06T10:02:40;2.53;;;2.33;;
17614;SDS011;8926;49.720;6.576;2023-08-06T10:05:06;1.40;;;1.20;;
17614;SDS011;8926;49.720;6.576;2023-08-06T10:07:33;1.63;;;1.50;;
17614;SDS011;8926;49.720;6.576;2023-08-06T10:09:59;1.20;;;1.10;;
17614;SDS011;8926;49.720;6.576;2023-08-06T10:12:25;2.00;;;1.83;;
17614;SDS011;8926;49.720;6.576;2023-08-06T10:14:54;1.87;;;1.77;;
17614;SDS011;8926;49.720;6.576;2023-08-06T10:17:22;1.53;;;1.43;;
17614;SDS011;8926;49.720;6.576;2023-08-06T10:19:49;1.50;;;1.40;;
17614;SDS011;8926;49.720;6.576;2023-08-06T10:22:16;1.40;;;1.30;;
17614;SDS011;8926;49.720;6.576;2023-08-06T10:27:21;1.57;;;1.47;;
17614;SDS011;8926;49.720;6.576;2023-08-06T10:29:49;1.33;;;1.23;;
17614;SDS011;8926;49.720;6.576;2023-08-06T10:32:15;1.40;;;1.30;;
17614;SDS011;8926;49.720;6.576;2023-08-06T10:34:59;2.37;;;1.70;;
17614;SDS011;8926;49.720;6.576;2023-08-06T10:37:35;1.10;;;1.03;;
17614;SDS011;8926;49.720;6.576;2023-08-06T10:40:01;2.30;;;1.30;;
17614;SDS011;8926;49.720;6.576;2023-08-06T10:42:28;1.50;;;1.40;;
17614;SDS011;8926;49.720;6.576;2023-08-06T10:47:45;1.53;;;1.43;;
17614;SDS011;8926;49.720;6.576;2023-08-06T10:50:12;1.33;;;1.00;;
17614;SDS011;8926;49.720;6.576;2023-08-06T10:52:39;1.47;;;1.37;;
17614;SDS011;8926;49.720;6.576;2023-08-06T10:55:04;1.30;;;1.20;;
17614;SDS011;8926;49.720;6.576;2023-08-06T10:57:30;0.90;;;0.90;;
17614;SDS011;8926;49.720;6.576;2023-08-06T10:59:55;0.63;;;0.63;;
17614;SDS011;8926;49.720;6.576;2023-08-06T11:02:21;0.73;;;0.73;;
17614;SDS011;8926;49.720;6.576;2023-08-06T11:04:47;0.70;;;0.70;;
17614;SDS011;8926;49.720;6.576;2023-08-06T11:07:13;0.60;;;0.60;;
17614;SDS011;8926;49.720;6.576;2023-08-06T11:09:38;0.70;;;0.70;;
17614;SDS011;8926;49.720;6.576;2023-08-06T11:12:08;1.23;;;0.90;;
17614;SDS011;8926;49.720;6.576;2023-08-06T11:14:35;0.50;;;0.50;;
17614;SDS011;8926;49.720;6.576;2023-08-06T11:17:00;0.83;;;0.77;;
17614;SDS011;8926;49.720;6.576;2023-08-06T11:19:26;1.37;;;0.50;;
17614;SDS011;8926;49.720;6.576;2023-08-06T11:21:51;1.40;;;0.50;;
17614;SDS011;8926;49.720;6.576;2023-08-06T11:24:17;0.50;;;0.47;;
17614;SDS011;8926;49.720;6.576;2023-08-06T11:26:42;0.33;;;0.33;;
17614;SDS011;8926;49.720;6.576;2023-08-06T11:29:09;0.40;;;0.40;;
17614;SDS011;8926;49.720;6.576;2023-08-06T11:31:35;0.60;;;0.60;;
17614;SDS011;8926;49.720;6.576;2023-08-06T11:34:01;0.30;;;0.30;;
17614;SDS011;8926;49.720;6.576;2023-08-06T11:36:30;1.10;;;0.60;;
17614;SDS011;8926;49.720;6.576;2023-08-06T11:38:56;0.73;;;0.40;;
17614;SDS011;8926;49.720;6.576;2023-08-06T11:41:21;0.57;;;0.50;;
17614;SDS011;8926;49.720;6.576;2023-08-06T11:43:47;1.00;;;0.60;;
17614;SDS011;8926;49.720;6.576;2023-08-06T11:46:12;0.33;;;0.33;;
17614;SDS011;8926;49.720;6.576;2023-08-06T11:48:50;0.73;;;0.70;;
17614;SDS011;8926;49.720;6.576;2023-08-06T11:51:22;0.97;;;0.70;;
17614;SDS011;8926;49.720;6.576;2023-08-06T11:53:51;0.60;;;0.57;;
17614;SDS011;8926;49.720;6.576;2023-08-06T11:56:19;0.70;;;0.60;;
17614;SDS011;8926;49.720;6.576;2023-08-06T11:58:44;1.57;;;0.97;;
17614;SDS011;8926;49.720;6.576;2023-08-06T12:01:09;1.93;;;0.97;;
17614;SDS011;8926;49.720;6.576;2023-08-06T12:03:41;1.63;;;0.80;;
17614;SDS011;8926;49.720;6.576;2023-08-06T12:06:06;0.90;;;0.60;;
17614;SDS011;8926;49.720;6.576;2023-08-06T12:08:35;0.80;;;0.40;;
17614;SDS011;8926;49.720;6.576;2023-08-06T12:11:00;0.50;;;0.50;;
17614;SDS011;8926;49.720;6.576;2023-08-06T12:13:26;0.47;;;0.47;;
17614;SDS011;8926;49.720;6.576;2023-08-06T12:15:51;0.40;;;0.40;;
17614;SDS011;8926;49.720;6.576;2023-08-06T12:18:19;0.40;;;0.20;;
17614;SDS011;8926;49.720;6.576;2023-08-06T12:20:44;0.73;;;0.40;;
17614;SDS011;8926;49.720;6.576;2023-08-06T12:23:10;0.50;;;0.50;;
17614;SDS011;8926;49.720;6.576;2023-08-06T12:25:35;1.00;;;0.63;;
17614;SDS011;8926;49.720;6.576;2023-08-06T12:28:00;0.80;;;0.60;;
17614;SDS011;8926;49.720;6.576;2023-08-06T12:30:26;1.80;;;0.70;;
17614;SDS011;8926;49.720;6.576;2023-08-06T12:32:51;0.40;;;0.40;;
17614;SDS011;8926;49.720;6.576;2023-08-06T12:35:17;0.50;;;0.47;;
17614;SDS011;8926;49.720;6.576;2023-08-06T12:37:42;1.73;;;0.70;;
17614;SDS011;8926;49.720;6.576;2023-08-06T12:40:09;0.70;;;0.70;;
17614;SDS011;8926;49.720;6.576;2023-08-06T12:42:34;1.03;;;0.50;;
17614;SDS011;8926;49.720;6.576;2023-08-06T12:44:59;0.60;;;0.60;;
17614;SDS011;8926;49.720;6.576;2023-08-06T12:47:25;0.60;;;0.53;;
17614;SDS011;8926;49.720;6.576;2023-08-06T12:49:50;0.70;;;0.47;;
17614;SDS011;8926;49.720;6.576;2023-08-06T12:52:15;0.40;;;0.40;;
17614;SDS011;8926;49.720;6.576;2023-08-06T12:54:41;0.50;;;0.40;;
17614;SDS011;8926;49.720;6.576;2023-08-06T12:57:07;0.50;;;0.40;;
17614;SDS011;8926;49.720;6.576;2023-08-06T12:59:32;0.53;;;0.50;;
17614;SDS011;8926;49.720;6.576;2023-08-06T13:01:58;0.50;;;0.50;;
17614;SDS011;8926;49.720;6.576;2023-08-06T13:04:24;0.87;;;0.40;;
17614;SDS011;8926;49.720;6.576;2023-08-06T13:06:50;0.63;;;0.40;;
17614;SDS011;8926;49.720;6.576;2023-08-06T13:09:15;0.50;;;0.50;;
17614;SDS011;8926;49.720;6.576;2023-08-06T13:11:41;0.57;;;0.53;;
17614;SDS011;8926;49.720;6.576;2023-08-06T13:14:10;0.50;;;0.50;;
17614;SDS011;8926;49.720;6.576;2023-08-06T13:16:37;0.90;;;0.47;;
17614;SDS011;8926;49.720;6.576;2023-08-06T13:19:04;1.77;;;1.53;;
17614;SDS011;8926;49.720;6.576;2023-08-06T13:21:34;1.00;;;0.90;;
17614;SDS011;8926;49.720;6.576;2023-08-06T13:24:16;1.73;;;1.50;;
17614;SDS011;8926;49.720;6.576;2023-08-06T13:26:42;2.00;;;1.80;;
17614;SDS011;8926;49.720;6.576;2023-08-06T13:29:07;1.60;;;1.50;;
17614;SDS011;8926;49.720;6.576;2023-08-06T13:31:32;1.50;;;1.40;;
17614;SDS011;8926;49.720;6.576;2023-08-06T13:33:58;0.83;;;0.73;;
17614;SDS011;8926;49.720;6.576;2023-08-06T13:36:24;0.70;;;0.70;;
17614;SDS011;8926;49.720;6.576;2023-08-06T13:38:49;0.40;;;0.40;;
17614;SDS011;8926;49.720;6.576;2023-08-06T13:41:15;0.30;;;0.30;;
17614;SDS011;8926;49.720;6.576;2023-08-06T13:43:42;1.47;;;0.50;;
17614;SDS011;8926;49.720;6.576;2023-08-06T13:46:09;0.20;;;0.20;;
17614;SDS011;8926;49.720;6.576;2023-08-06T13:48:34;1.03;;;0.50;;
17614;SDS011;8926;49.720;6.576;2023-08-06T13:51:00;0.40;;;0.40;;
17614;SDS011;8926;49.720;6.576;2023-08-06T13:53:25;0.50;;;0.50;;
17614;SDS011;8926;49.720;6.576;2023-08-06T13:55:54;0.70;;;0.50;;
17614;SDS011;8926;49.720;6.576;2023-08-06T13:58:20;0.80;;;0.43;;
17614;SDS011;8926;49.720;6.576;2023-08-06T14:00:46;0.53;;;0.50;;
17614;SDS011;8926;49.720;6.576;2023-08-06T14:03:11;0.40;;;0.40;;
17614;SDS011;8926;49.720;6.576;2023-08-06T14:05:36;0.40;;;0.40;;
17614;SDS011;8926;49.720;6.576;2023-08-06T14:08:02;0.60;;;0.43;;
17614;SDS011;8926;49.720;6.576;2023-08-06T14:10:27;0.60;;;0.60;;
17614;SDS011;8926;49.720;6.576;2023-08-06T14:12:52;0.33;;;0.30;;
17614;SDS011;8926;49.720;6.576;2023-08-06T14:15:18;0.47;;;0.40;;
17614;SDS011;8926;49.720;6.576;2023-08-06T14:17:43;0.50;;;0.50;;
17614;SDS011;8926;49.720;6.576;2023-08-06T14:20:08;0.47;;;0.47;;
17614;SDS011;8926;49.720;6.576;2023-08-06T14:22:36;0.60;;;0.60;;
17614;SDS011;8926;49.720;6.576;2023-08-06T14:25:02;0.80;;;0.70;;
17614;SDS011;8926;49.720;6.576;2023-08-06T14:27:28;0.70;;;0.70;;
17614;SDS011;8926;49.720;6.576;2023-08-06T14:29:53;0.70;;;0.70;;
17614;SDS011;8926;49.720;6.576;2023-08-06T14:32:18;0.40;;;0.40;;
17614;SDS011;8926;49.720;6.576;2023-08-06T14:34:44;0.47;;;0.43;;
17614;SDS011;8926;49.720;6.576;2023-08-06T14:37:10;1.03;;;0.70;;
17614;SDS011;8926;49.720;6.576;2023-08-06T14:39:35;1.90;;;0.63;;
17614;SDS011;8926;49.720;6.576;2023-08-06T14:42:01;0.83;;;0.50;;
17614;SDS011;8926;49.720;6.576;2023-08-06T14:44:27;0.60;;;0.60;;
17614;SDS011;8926;49.720;6.576;2023-08-06T14:46:52;0.40;;;0.40;;
17614;SDS011;8926;49.720;6.576;2023-08-06T14:49:17;0.77;;;0.77;;
17614;SDS011;8926;49.720;6.576;2023-08-06T14:51:43;0.70;;;0.50;;
17614;SDS011;8926;49.720;6.576;2023-08-06T14:54:08;0.80;;;0.70;;
17614;SDS011;8926;49.720;6.576;2023-08-06T14:56:33;0.40;;;0.40;;
17614;SDS011;8926;49.720;6.576;2023-08-06T14:58:59;0.40;;;0.40;;
17614;SDS011;8926;49.720;6.576;2023-08-06T15:01:24;0.87;;;0.67;;
17614;SDS011;8926;49.720;6.576;2023-08-06T15:03:49;0.97;;;0.57;;